createdAt,value
2024-04-12T00:01:03.279Z,4.35
2024-04-12T00:03:38.109Z,5.00
2024-04-12T00:06:08.882Z,3.80
2024-04-12T00:08:50.941Z,4.25
2024-04-12T00:11:20.103Z,4.30
2024-04-12T00:13:53.855Z,4.00
2024-04-12T00:16:26.303Z,4.82
2024-04-12T00:19:08.592Z,5.00
2024-04-12T00:21:39.407Z,4.13
2024-04-12T00:24:13.798Z,4.30
2024-04-12T00:26:44.533Z,3.78
2024-04-12T00:29:27.828Z,3.92
2024-04-12T00:31:55.893Z,3.67
2024-04-12T00:34:28.068Z,4.15
2024-04-12T00:37:07.665Z,4.78
2024-04-12T00:39:41.543Z,4.28
2024-04-12T00:42:12.771Z,4.40
2024-04-12T00:44:43.755Z,4.60
2024-04-12T00:47:17.916Z,4.07
2024-04-12T00:49:53.188Z,4.25
2024-04-12T00:52:25.112Z,3.95
2024-04-12T00:55:05.143Z,4.43
2024-04-12T00:57:38.710Z,4.00
2024-04-12T01:00:13.635Z,4.45
2024-04-12T01:02:45.492Z,3.90
2024-04-12T01:05:19.565Z,4.75
2024-04-12T01:07:52.199Z,4.28
2024-04-12T01:10:32.266Z,4.30
2024-04-12T01:13:04.276Z,4.40
2024-04-12T01:15:39.443Z,4.57
2024-04-12T01:18:13.700Z,4.43
2024-04-12T01:20:47.064Z,3.90
2024-04-12T01:23:18.456Z,4.72
2024-04-12T01:25:53.030Z,4.18
2024-04-12T01:28:21.072Z,5.00
2024-04-12T01:31:02.044Z,4.72
2024-04-12T01:33:33.260Z,4.65
2024-04-12T01:36:06.848Z,4.60
2024-04-12T01:38:38.390Z,4.00
2024-04-12T01:41:12.493Z,5.00
2024-04-12T01:43:39.974Z,4.60
2024-04-12T01:46:11.101Z,4.18
2024-04-12T01:48:38.648Z,4.78
2024-04-12T01:51:15.187Z,4.28
2024-04-12T01:53:43.008Z,4.95
2024-04-12T01:56:16.014Z,4.70
2024-04-12T01:58:44.463Z,5.03
2024-04-12T02:01:18.019Z,4.65
2024-04-12T02:03:46.097Z,5.30
2024-04-12T02:06:18.022Z,5.85
2024-04-12T02:08:50.269Z,4.90
2024-04-12T02:11:27.168Z,4.82
2024-04-12T02:13:56.255Z,5.18
2024-04-12T02:16:28.388Z,4.88
2024-04-12T02:18:57.604Z,4.45
2024-04-12T02:21:33.053Z,4.90
2024-04-12T02:24:02.570Z,5.25
2024-04-12T02:26:38.733Z,4.85
2024-04-12T02:29:06.317Z,5.53
2024-04-12T02:31:50.523Z,5.10
2024-04-12T02:34:20.245Z,5.85
2024-04-12T02:36:51.072Z,5.22
2024-04-12T02:39:25.029Z,4.97
2024-04-12T02:41:58.122Z,5.43
2024-04-12T02:44:26.855Z,4.95
2024-04-12T02:46:59.967Z,4.78
2024-04-12T02:52:01.160Z,5.25
2024-04-12T02:54:29.887Z,5.38
2024-04-12T02:57:06.916Z,5.40
2024-04-12T02:59:36.287Z,5.50
2024-04-12T03:02:06.855Z,4.85
2024-04-12T03:04:35.079Z,4.88
2024-04-12T03:07:10.827Z,4.90
2024-04-12T03:09:42.018Z,5.40
2024-04-12T03:12:14.905Z,5.45
2024-04-12T03:14:43.472Z,5.07
2024-04-12T03:17:15.842Z,5.60
2024-04-12T03:19:45.515Z,5.45
2024-04-12T03:22:22.757Z,5.05
2024-04-12T03:24:51.810Z,5.63
2024-04-12T03:27:24.806Z,5.10
2024-04-12T03:29:53.662Z,5.03
2024-04-12T03:32:30.768Z,5.15
2024-04-12T03:35:00.738Z,5.43
2024-04-12T03:37:48.691Z,4.85
2024-04-12T03:40:18.527Z,6.60
2024-04-12T03:42:51.200Z,6.20
2024-04-12T03:47:51.861Z,5.82
2024-04-12T03:50:19.539Z,5.15
2024-04-12T03:52:49.590Z,5.00
2024-04-12T03:55:18.043Z,5.68
2024-04-12T03:57:49.691Z,5.32
2024-04-12T04:00:26.422Z,5.32
2024-04-12T04:03:00.494Z,5.60
2024-04-12T04:05:31.418Z,5.50
2024-04-12T04:08:02.135Z,5.50
2024-04-12T04:10:32.412Z,5.47
2024-04-12T04:13:05.330Z,5.55
2024-04-12T04:15:52.013Z,6.32
2024-04-12T04:18:21.052Z,5.10
2024-04-12T04:20:51.727Z,5.75
2024-04-12T04:23:22.086Z,5.63
2024-04-12T04:25:56.814Z,5.68
2024-04-12T04:28:32.334Z,6.35
2024-04-12T04:31:09.700Z,7.00
2024-04-12T04:33:42.293Z,6.38
2024-04-12T04:36:13.353Z,6.93
2024-04-12T04:38:41.812Z,7.10
2024-04-12T04:41:20.176Z,5.93
2024-04-12T04:43:47.787Z,6.30
2024-04-12T04:46:29.643Z,6.50
2024-04-12T04:49:01.319Z,6.93
2024-04-12T04:51:31.850Z,6.35
2024-04-12T04:54:01.995Z,5.60
2024-04-12T04:56:34.563Z,6.47
2024-04-12T04:59:07.767Z,7.15
2024-04-12T05:01:39.189Z,6.10
2024-04-12T05:04:19.017Z,6.28
2024-04-12T05:06:51.586Z,7.53
2024-04-12T05:09:24.264Z,6.78
2024-04-12T05:11:55.776Z,6.32
2024-04-12T05:14:48.099Z,6.22
2024-04-12T05:17:20.615Z,6.53
2024-04-12T05:19:53.495Z,6.88
2024-04-12T05:22:21.530Z,7.07
2024-04-12T05:24:53.929Z,6.57
2024-04-12T05:29:52.241Z,6.00
2024-04-12T05:32:24.688Z,5.63
2024-04-12T05:34:55.226Z,5.60
2024-04-12T05:37:23.595Z,11.68
2024-04-12T05:39:59.245Z,6.38
2024-04-12T05:42:27.333Z,5.22
2024-04-12T05:45:00.089Z,5.60
2024-04-12T05:47:30.153Z,5.47
2024-04-12T05:50:03.071Z,6.07
2024-04-12T05:52:33.772Z,5.45
2024-04-12T05:55:17.518Z,5.78
2024-04-12T05:57:45.124Z,5.43
2024-04-12T06:00:16.274Z,5.32
2024-04-12T06:02:48.985Z,5.30
2024-04-12T06:05:24.101Z,5.47
2024-04-12T06:07:53.783Z,5.93
2024-04-12T06:10:25.390Z,5.55
2024-04-12T06:12:56.401Z,6.10
2024-04-12T06:15:29.525Z,5.63
2024-04-12T06:18:01.069Z,5.57
2024-04-12T06:20:35.578Z,5.10
2024-04-12T06:23:08.211Z,5.20
2024-04-12T06:26:05.107Z,5.53
2024-04-12T06:28:34.021Z,5.25
2024-04-12T06:31:06.994Z,6.18
2024-04-12T06:33:41.156Z,5.43
2024-04-12T06:36:14.706Z,5.32
2024-04-12T06:38:45.301Z,5.70
2024-04-12T06:41:18.809Z,6.25
2024-04-12T06:43:50.394Z,4.88
2024-04-12T06:46:22.282Z,5.10
2024-04-12T06:48:53.071Z,5.35
2024-04-12T06:51:28.949Z,4.93
2024-04-12T06:53:58.113Z,4.65
2024-04-12T06:56:45.072Z,4.97
2024-04-12T06:59:14.826Z,3.95
2024-04-12T07:01:50.351Z,3.75
2024-04-12T07:07:25.389Z,3.90
2024-04-12T07:10:01.452Z,3.72
2024-04-12T07:12:33.449Z,4.15
2024-04-12T07:17:36.164Z,3.75
2024-04-12T07:20:28.228Z,3.30
2024-04-12T07:23:01.679Z,3.30
2024-04-12T07:26:17.801Z,3.20
2024-04-12T07:28:48.706Z,4.32
2024-04-12T07:31:50.291Z,3.85
2024-04-12T07:34:20.389Z,3.25
2024-04-12T07:37:22.146Z,3.10
2024-04-12T07:40:16.713Z,4.13
2024-04-12T07:42:53.645Z,3.58
2024-04-12T07:45:36.372Z,3.45
2024-04-12T07:48:31.690Z,3.60
2024-04-12T07:51:06.529Z,3.50
2024-04-12T07:53:40.428Z,3.00
2024-04-12T07:56:22.302Z,4.38
2024-04-12T07:59:17.607Z,3.08
2024-04-12T08:01:52.242Z,2.72
2024-04-12T08:04:35.145Z,2.70
2024-04-12T08:07:33.413Z,2.20
2024-04-12T08:10:32.943Z,2.10
2024-04-12T08:13:13.083Z,2.03
2024-04-12T08:15:43.115Z,2.40
2024-04-12T08:18:25.091Z,2.03
2024-04-12T08:21:11.175Z,2.30
2024-04-12T08:23:46.551Z,2.28
2024-04-12T08:26:47.002Z,2.50
2024-04-12T08:29:25.632Z,1.90
2024-04-12T08:32:23.822Z,2.05
2024-04-12T08:34:57.038Z,2.15
2024-04-12T08:37:35.814Z,2.00
2024-04-12T08:40:12.789Z,2.22
2024-04-12T08:43:11.725Z,2.30
2024-04-12T08:45:45.628Z,3.03
2024-04-12T08:48:32.355Z,3.13
2024-04-12T08:51:23.411Z,2.45
2024-04-12T08:54:41.341Z,2.85
2024-04-12T08:57:38.229Z,2.72
2024-04-12T09:03:27.367Z,2.50
2024-04-12T09:06:18.793Z,2.20
2024-04-12T09:08:58.912Z,2.50
2024-04-12T09:11:47.148Z,2.17
2024-04-12T09:14:22.041Z,1.85
2024-04-12T09:17:25.518Z,1.92
2024-04-12T09:19:54.855Z,1.50
2024-04-12T09:22:33.626Z,1.70
2024-04-12T09:25:21.713Z,2.05
2024-04-12T09:27:53.159Z,1.80
2024-04-12T09:30:39.278Z,1.30
2024-04-12T09:33:22.095Z,2.00
2024-04-12T09:35:58.779Z,1.70
2024-04-12T09:38:30.102Z,1.90
2024-04-12T09:41:28.742Z,1.05
2024-04-12T09:47:12.091Z,0.82
2024-04-12T09:50:02.894Z,2.25
2024-04-12T09:52:52.354Z,1.90
2024-04-12T09:55:56.521Z,1.23
2024-04-12T09:59:21.481Z,1.05
2024-04-12T10:02:15.893Z,1.35
2024-04-12T10:05:42.182Z,1.65
2024-04-12T10:08:44.163Z,2.00
2024-04-12T10:14:43.489Z,0.77
2024-04-12T10:17:54.070Z,1.13
2024-04-12T10:23:53.729Z,1.17
2024-04-12T10:26:52.745Z,1.38
2024-04-12T10:29:43.133Z,1.45
2024-04-12T10:32:31.743Z,1.20
2024-04-12T10:35:27.485Z,0.80
2024-04-12T10:38:36.899Z,1.23
2024-04-12T10:41:42.324Z,1.15
2024-04-12T10:44:23.806Z,0.90
2024-04-12T10:46:54.052Z,0.80
2024-04-12T10:50:39.677Z,1.30
2024-04-12T10:53:22.243Z,1.30
2024-04-12T10:56:01.480Z,1.20
2024-04-12T10:58:53.211Z,1.20
2024-04-12T11:05:08.086Z,1.15
2024-04-12T11:07:54.624Z,1.10
2024-04-12T11:11:19.222Z,1.27
2024-04-12T11:14:33.182Z,1.20
2024-04-12T11:17:24.577Z,1.80
2024-04-12T11:23:32.186Z,1.10
2024-04-12T11:26:25.943Z,1.17
2024-04-12T11:29:23.014Z,1.40
2024-04-12T11:32:14.817Z,1.80
2024-04-12T11:35:05.472Z,0.70
2024-04-12T11:37:44.362Z,1.45
2024-04-12T11:43:34.376Z,0.85
2024-04-12T11:46:09.754Z,0.60
2024-04-12T11:49:04.551Z,0.63
2024-04-12T11:51:35.115Z,0.43
2024-04-12T11:54:18.117Z,1.30
2024-04-12T11:56:46.283Z,0.40
2024-04-12T11:59:29.984Z,0.30
2024-04-12T12:02:06.856Z,0.57
2024-04-12T12:04:40.927Z,1.35
2024-04-12T12:07:18.291Z,0.20
2024-04-12T12:09:54.082Z,0.30
2024-04-12T12:12:28.625Z,0.35
2024-04-12T12:15:17.228Z,0.40
2024-04-12T12:17:52.351Z,0.35
2024-04-12T12:20:24.589Z,0.43
2024-04-12T12:23:00.046Z,0.40
2024-04-12T12:25:57.590Z,0.40
2024-04-12T12:28:33.908Z,0.20
2024-04-12T12:31:15.256Z,0.30
2024-04-12T12:33:48.256Z,0.30
2024-04-12T12:36:25.125Z,0.30
2024-04-12T12:39:03.380Z,0.30
2024-04-12T12:42:21.686Z,0.40
2024-04-12T12:44:56.572Z,0.40
2024-04-12T12:48:04.023Z,0.50
2024-04-12T12:50:42.403Z,0.30
2024-04-12T12:53:19.466Z,0.20
2024-04-12T12:56:09.547Z,0.65
2024-04-12T12:58:53.079Z,0.30
2024-04-12T13:01:38.038Z,0.30
2024-04-12T13:04:09.411Z,0.20
2024-04-12T13:06:45.949Z,0.38
2024-04-12T13:09:26.555Z,0.28
2024-04-12T13:12:15.323Z,0.30
2024-04-12T13:14:50.254Z,0.20
2024-04-12T13:18:09.848Z,0.68
2024-04-12T13:20:53.786Z,0.30
2024-04-12T13:23:31.887Z,0.68
2024-04-12T13:26:25.325Z,0.40
2024-04-12T13:29:03.948Z,0.50
2024-04-12T13:31:40.637Z,0.40
2024-04-12T13:37:26.432Z,0.40
2024-04-12T13:40:19.949Z,0.30
2024-04-12T13:43:01.089Z,0.68
2024-04-12T13:46:03.510Z,0.50
2024-04-12T13:49:02.294Z,0.50
2024-04-12T13:51:52.018Z,0.40
2024-04-12T13:54:35.715Z,0.73
2024-04-12T13:57:24.542Z,0.52
2024-04-12T13:59:55.864Z,0.40
2024-04-12T14:02:34.718Z,0.28
2024-04-12T14:05:19.046Z,0.60
2024-04-12T14:07:51.214Z,0.60
2024-04-12T14:10:33.437Z,0.30
2024-04-12T14:13:22.808Z,0.40
2024-04-12T14:16:05.093Z,0.40
2024-04-12T14:21:10.346Z,0.30
2024-04-12T14:24:00.227Z,0.43
2024-04-12T14:26:38.394Z,0.40
2024-04-12T14:29:17.918Z,0.60
2024-04-12T14:31:55.950Z,2.30
2024-04-12T14:34:30.515Z,0.60
2024-04-12T14:37:06.665Z,0.50
2024-04-12T14:39:36.847Z,0.47
2024-04-12T14:42:09.307Z,0.40
2024-04-12T14:44:51.870Z,0.50
2024-04-12T14:47:27.147Z,0.40
2024-04-12T14:49:57.410Z,0.93
2024-04-12T14:52:31.329Z,0.98
2024-04-12T14:55:14.058Z,0.50
2024-04-12T14:57:52.386Z,0.50
2024-04-12T15:00:37.495Z,0.80
2024-04-12T15:03:24.192Z,1.00
2024-04-12T15:06:14.791Z,0.40
2024-04-12T15:09:17.539Z,0.63
2024-04-12T15:12:07.135Z,1.65
2024-04-12T15:15:04.579Z,0.82
2024-04-12T15:17:51.876Z,0.40
2024-04-12T15:20:42.714Z,0.60
2024-04-12T15:23:32.716Z,0.40
2024-04-12T15:26:28.306Z,0.70
2024-04-12T15:29:15.491Z,0.52
2024-04-12T15:32:07.805Z,0.45
2024-04-12T15:34:53.939Z,0.73
2024-04-12T15:37:48.426Z,0.63
2024-04-12T15:40:45.674Z,0.55
2024-04-12T15:43:42.026Z,0.60
2024-04-12T15:46:30.594Z,1.05
2024-04-12T15:49:22.829Z,0.70
2024-04-12T15:54:53.042Z,0.77
2024-04-12T15:57:49.114Z,0.60
2024-04-12T16:00:41.317Z,0.80
2024-04-12T16:03:37.026Z,3.13
2024-04-12T16:06:31.993Z,0.50
2024-04-12T16:09:23.154Z,1.00
2024-04-12T16:15:13.750Z,0.65
2024-04-12T16:17:45.728Z,1.13
2024-04-12T16:22:58.967Z,0.60
2024-04-12T16:25:34.613Z,2.55
2024-04-12T16:28:08.899Z,0.60
2024-04-12T16:30:48.679Z,0.50
2024-04-12T16:33:31.491Z,0.73
2024-04-12T16:36:05.286Z,0.70
2024-04-12T16:38:43.085Z,0.70
2024-04-12T16:41:22.001Z,0.80
2024-04-12T16:43:56.458Z,1.00
2024-04-12T16:46:35.422Z,0.93
2024-04-12T16:49:07.111Z,0.70
2024-04-12T16:51:49.622Z,1.35
2024-04-12T16:54:30.796Z,1.02
2024-04-12T16:57:11.571Z,1.20
2024-04-12T16:59:45.126Z,1.05
2024-04-12T17:02:17.963Z,0.70
2024-04-12T17:07:29.719Z,3.17
2024-04-12T17:10:20.548Z,0.80
2024-04-12T17:12:53.645Z,1.48
2024-04-12T17:15:24.564Z,1.33
2024-04-12T17:17:58.120Z,1.30
2024-04-12T17:20:25.594Z,0.90
2024-04-12T17:22:59.059Z,1.00
2024-04-12T17:25:38.719Z,1.00
2024-04-12T17:28:16.670Z,1.10
2024-04-12T17:30:52.997Z,1.85
2024-04-12T17:33:31.355Z,1.27
2024-04-12T17:36:11.857Z,2.10
2024-04-12T17:38:46.581Z,1.90
2024-04-12T17:41:19.757Z,2.50
2024-04-12T17:43:54.777Z,1.30
2024-04-12T17:46:26.929Z,1.40
2024-04-12T17:49:10.572Z,3.83
2024-04-12T17:51:38.318Z,2.08
2024-04-12T17:54:13.117Z,1.33
2024-04-12T17:56:44.457Z,2.97
2024-04-12T17:59:15.455Z,3.17
2024-04-12T18:01:57.358Z,2.60
2024-04-12T18:04:30.747Z,1.98
2024-04-12T18:06:58.251Z,2.90
2024-04-12T18:09:31.584Z,2.22
2024-04-12T18:12:04.680Z,2.60
2024-04-12T18:14:35.042Z,2.72
2024-04-12T18:17:06.485Z,2.30
2024-04-12T18:19:34.846Z,3.65
2024-04-12T18:22:05.504Z,4.35
2024-04-12T18:24:33.022Z,5.22
2024-04-12T18:27:06.640Z,5.60
2024-04-12T18:29:37.164Z,5.47
2024-04-12T18:32:10.177Z,7.00
2024-04-12T18:34:39.668Z,8.02
2024-04-12T18:37:38.866Z,9.18
2024-04-12T18:40:26.611Z,8.82
2024-04-12T18:43:18.026Z,6.88
2024-04-12T18:45:55.314Z,4.93
2024-04-12T18:48:28.174Z,5.05
2024-04-12T18:50:59.549Z,6.03
2024-04-12T18:53:31.199Z,9.50
2024-04-12T18:55:59.320Z,9.40
2024-04-12T18:58:35.410Z,7.32
2024-04-12T19:01:05.358Z,6.25
2024-04-12T19:03:36.113Z,13.13
2024-04-12T19:06:07.120Z,20.20
2024-04-12T19:08:43.005Z,7.70
2024-04-12T19:11:13.749Z,7.25
2024-04-12T19:13:45.402Z,15.23
2024-04-12T19:16:15.488Z,5.80
2024-04-12T19:18:47.856Z,6.30
2024-04-12T19:21:19.375Z,7.43
2024-04-12T19:24:03.838Z,6.50
2024-04-12T19:26:43.860Z,5.10
2024-04-12T19:29:14.484Z,3.85
2024-04-12T19:31:47.558Z,4.90
2024-04-12T19:34:17.237Z,8.40
2024-04-12T19:36:51.767Z,10.23
2024-04-12T19:39:20.246Z,6.68
2024-04-12T19:41:50.799Z,5.85
2024-04-12T19:44:21.258Z,7.60
2024-04-12T19:46:55.910Z,7.38
2024-04-12T19:49:25.271Z,6.28
2024-04-12T19:51:55.588Z,6.07
2024-04-12T19:54:23.898Z,5.35
2024-04-12T19:56:54.263Z,5.80
2024-04-12T19:59:24.506Z,5.45
2024-04-12T20:01:56.827Z,5.20
2024-04-12T20:04:25.400Z,5.75
2024-04-12T20:06:55.983Z,4.57
2024-04-12T20:09:24.239Z,6.00
2024-04-12T20:12:00.532Z,5.65
2024-04-12T20:14:32.954Z,6.05
2024-04-12T20:17:06.135Z,7.97
2024-04-12T20:19:35.771Z,6.20
2024-04-12T20:22:06.800Z,5.93
2024-04-12T20:24:35.438Z,5.63
2024-04-12T20:27:05.939Z,5.65
2024-04-12T20:29:37.398Z,6.45
2024-04-12T20:32:24.672Z,5.78
2024-04-12T20:35:20.177Z,6.53
2024-04-12T20:37:50.915Z,8.38
2024-04-12T20:40:18.550Z,8.10
2024-04-12T20:42:50.851Z,8.18
2024-04-12T20:45:22.952Z,6.68
2024-04-12T20:47:52.814Z,7.95
2024-04-12T20:50:20.120Z,6.72
2024-04-12T20:52:50.455Z,6.68
2024-04-12T20:55:17.868Z,6.50
2024-04-12T20:57:48.707Z,6.55
2024-04-12T21:00:18.704Z,7.05
2024-04-12T21:02:53.425Z,6.70
2024-04-12T21:05:21.198Z,7.88
2024-04-12T21:07:53.147Z,7.10
2024-04-12T21:10:25.000Z,6.40
2024-04-12T21:12:59.537Z,6.85
2024-04-12T21:15:27.057Z,6.97
2024-04-12T21:18:03.207Z,6.82
2024-04-12T21:20:31.173Z,7.78
2024-04-12T21:23:03.760Z,6.22
2024-04-12T21:25:33.704Z,6.40
2024-04-12T21:28:07.048Z,6.80
2024-04-12T21:30:37.052Z,7.20
2024-04-12T21:33:15.844Z,7.40
2024-04-12T21:35:54.060Z,8.18
2024-04-12T21:38:25.109Z,7.45
2024-04-12T21:41:06.143Z,7.57
2024-04-12T21:43:37.141Z,7.78
2024-04-12T21:46:06.210Z,8.10
2024-04-12T21:48:41.223Z,8.55
2024-04-12T21:51:11.605Z,9.20
2024-04-12T21:53:44.569Z,8.55
2024-04-12T21:56:15.622Z,9.50
2024-04-12T21:58:46.991Z,9.95
2024-04-12T22:01:17.214Z,10.10
2024-04-12T22:03:54.191Z,8.60
2024-04-12T22:06:21.919Z,9.40
2024-04-12T22:08:55.109Z,9.75
2024-04-12T22:11:25.204Z,9.60
2024-04-12T22:13:55.808Z,8.23
2024-04-12T22:16:23.581Z,9.90
2024-04-12T22:18:58.450Z,9.38
2024-04-12T22:21:27.414Z,8.20
2024-04-12T22:23:59.918Z,8.48
2024-04-12T22:26:34.574Z,8.55
2024-04-12T22:29:05.154Z,8.55
2024-04-12T22:31:32.730Z,7.97
2024-04-12T22:34:05.698Z,7.90
2024-04-12T22:36:32.951Z,7.93
2024-04-12T22:39:04.650Z,7.68
2024-04-12T22:41:32.226Z,7.93
2024-04-12T22:44:03.284Z,7.43
2024-04-12T22:46:30.877Z,8.30
2024-04-12T22:49:07.404Z,8.13
2024-04-12T22:51:36.223Z,7.68
2024-04-12T22:54:06.608Z,8.00
2024-04-12T22:56:37.073Z,7.25
2024-04-12T22:59:07.292Z,8.18
2024-04-12T23:01:39.682Z,7.50
2024-04-12T23:04:14.133Z,7.82
2024-04-12T23:06:42.848Z,8.30
2024-04-12T23:09:13.252Z,8.25
2024-04-12T23:11:41.738Z,9.05
2024-04-12T23:14:12.257Z,7.22
2024-04-12T23:16:39.450Z,7.88
2024-04-12T23:19:10.856Z,8.43
2024-04-12T23:21:40.831Z,8.03
2024-04-12T23:24:12.655Z,7.90
2024-04-12T23:26:40.919Z,7.53
2024-04-12T23:29:11.302Z,8.23
2024-04-12T23:31:41.106Z,7.53
2024-04-12T23:34:14.118Z,7.20
2024-04-12T23:36:44.561Z,8.23
2024-04-12T23:39:18.161Z,7.83
2024-04-12T23:41:45.497Z,7.70
2024-04-12T23:44:17.532Z,8.50
2024-04-12T23:46:45.703Z,8.13
2024-04-12T23:49:18.765Z,8.32
2024-04-12T23:51:50.463Z,9.23
2024-04-12T23:54:22.596Z,8.33
2024-04-12T23:59:20.112Z,8.27
